sensor_id;sensor_type;location;lat;lon;timestamp;pressure;altitude;pressure_sealevel;temperature;humidity
31595;BME280;18200;48.726;8.892;2023-06-04T00:03:51;96747.50;;;28.00;32.15
31595;BME280;18200;48.726;8.892;2023-06-04T00:07:53;96748.44;;;28.35;30.99
31595;BME280;18200;48.726;8.892;2023-06-04T00:11:53;96751.81;;;28.15;30.91
31595;BME280;18200;48.726;8.892;2023-06-04T00:15:53;96749.59;;;28.05;31.07
31595;BME280;18200;48.726;8.892;2023-06-04T00:19:54;96744.84;;;28.05;31.43
31595;BME280;18200;48.726;8.892;2023-06-04T00:23:54;96745.25;;;28.13;31.03
31595;BME280;18200;48.726;8.892;2023-06-04T00:27:55;96748.00;;;27.89;30.52
31595;BME280;18200;48.726;8.892;2023-06-04T00:31:55;96747.06;;;27.59;32.19
31595;BME280;18200;48.726;8.892;2023-06-04T00:35:55;96750.16;;;27.52;31.84
31595;BME280;18200;48.726;8.892;2023-06-04T00:39:56;96751.56;;;27.48;31.86
31595;BME280;18200;48.726;8.892;2023-06-04T00:43:56;96751.00;;;27.35;32.46
31595;BME280;18200;48.726;8.892;2023-06-04T00:47:57;96753.03;;;27.16;31.94
31595;BME280;18200;48.726;8.892;2023-06-04T00:51:58;96762.00;;;26.75;33.12
31595;BME280;18200;48.726;8.892;2023-06-04T00:55:58;96754.59;;;27.08;32.74
31595;BME280;18200;48.726;8.892;2023-06-04T00:59:58;96762.84;;;27.17;31.99
31595;BME280;18200;48.726;8.892;2023-06-04T01:04:00;96769.00;;;27.12;31.71
31595;BME280;18200;48.726;8.892;2023-06-04T01:08:01;96760.81;;;27.36;32.04
31595;BME280;18200;48.726;8.892;2023-06-04T01:12:04;96774.03;;;27.05;32.07
31595;BME280;18200;48.726;8.892;2023-06-04T01:16:05;96768.41;;;26.17;33.90
31595;BME280;18200;48.726;8.892;2023-06-04T01:24:28;96763.97;;;26.92;32.39
31595;BME280;18200;48.726;8.892;2023-06-04T01:28:34;96768.41;;;26.99;32.34
31595;BME280;18200;48.726;8.892;2023-06-04T01:32:35;96763.19;;;27.01;32.18
31595;BME280;18200;48.726;8.892;2023-06-04T01:36:36;96767.81;;;26.95;31.38
31595;BME280;18200;48.726;8.892;2023-06-04T01:40:36;96758.63;;;26.80;32.36
31595;BME280;18200;48.726;8.892;2023-06-04T01:44:37;96760.19;;;26.81;32.20
31595;BME280;18200;48.726;8.892;2023-06-04T01:48:37;96758.63;;;26.62;32.37
31595;BME280;18200;48.726;8.892;2023-06-04T01:52:40;96764.47;;;26.64;32.27
31595;BME280;18200;48.726;8.892;2023-06-04T01:56:41;96770.13;;;25.75;33.31
31595;BME280;18200;48.726;8.892;2023-06-04T02:00:41;96770.97;;;26.03;33.90
31595;BME280;18200;48.726;8.892;2023-06-04T02:04:42;96765.28;;;25.88;33.78
31595;BME280;18200;48.726;8.892;2023-06-04T02:08:45;96771.34;;;26.23;33.07
31595;BME280;18200;48.726;8.892;2023-06-04T02:12:56;96768.97;;;26.03;33.01
31595;BME280;18200;48.726;8.892;2023-06-04T02:16:57;96768.34;;;25.90;33.04
31595;BME280;18200;48.726;8.892;2023-06-04T02:20:57;96776.31;;;25.97;33.19
31595;BME280;18200;48.726;8.892;2023-06-04T02:24:58;96775.91;;;26.08;32.34
31595;BME280;18200;48.726;8.892;2023-06-04T02:28:59;96768.63;;;25.74;32.66
31595;BME280;18200;48.726;8.892;2023-06-04T02:33:00;96770.16;;;25.84;33.03
31595;BME280;18200;48.726;8.892;2023-06-04T02:37:04;96773.16;;;25.59;33.81
31595;BME280;18200;48.726;8.892;2023-06-04T02:41:05;96776.69;;;25.38;34.43
31595;BME280;18200;48.726;8.892;2023-06-04T02:45:06;96778.66;;;24.63;35.38
31595;BME280;18200;48.726;8.892;2023-06-04T02:49:07;96773.38;;;25.12;34.86
31595;BME280;18200;48.726;8.892;2023-06-04T02:53:07;96770.09;;;25.57;34.27
31595;BME280;18200;48.726;8.892;2023-06-04T02:57:08;96778.69;;;25.68;33.53
31595;BME280;18200;48.726;8.892;2023-06-04T03:01:17;96774.97;;;25.01;34.24
31595;BME280;18200;48.726;8.892;2023-06-04T03:05:18;96778.63;;;25.28;34.10
31595;BME280;18200;48.726;8.892;2023-06-04T03:09:19;96772.59;;;25.12;33.59
31595;BME280;18200;48.726;8.892;2023-06-04T03:13:19;96773.91;;;25.29;33.79
31595;BME280;18200;48.726;8.892;2023-06-04T03:17:20;96778.63;;;24.98;33.72
31595;BME280;18200;48.726;8.892;2023-06-04T03:21:20;96780.16;;;23.96;35.72
31595;BME280;18200;48.726;8.892;2023-06-04T03:25:24;96788.16;;;24.50;36.10
31595;BME280;18200;48.726;8.892;2023-06-04T03:29:25;96794.41;;;24.85;33.60
31595;BME280;18200;48.726;8.892;2023-06-04T03:33:26;96801.06;;;24.40;35.73
31595;BME280;18200;48.726;8.892;2023-06-04T03:37:26;96802.66;;;24.85;34.35
31595;BME280;18200;48.726;8.892;2023-06-04T03:41:28;96800.72;;;25.16;34.09
31595;BME280;18200;48.726;8.892;2023-06-04T03:45:30;96809.53;;;25.11;33.59
31595;BME280;18200;48.726;8.892;2023-06-04T03:49:31;96795.06;;;25.19;33.64
31595;BME280;18200;48.726;8.892;2023-06-04T03:53:34;96803.31;;;24.20;35.19
31595;BME280;18200;48.726;8.892;2023-06-04T03:57:35;96805.56;;;23.75;36.04
31595;BME280;18200;48.726;8.892;2023-06-04T04:01:39;96803.72;;;24.31;35.28
31595;BME280;18200;48.726;8.892;2023-06-04T04:05:40;96810.22;;;24.93;34.93
31595;BME280;18200;48.726;8.892;2023-06-04T04:09:44;96809.97;;;24.79;34.34
31595;BME280;18200;48.726;8.892;2023-06-04T04:13:45;96807.84;;;24.83;33.49
31595;BME280;18200;48.726;8.892;2023-06-04T04:17:51;96808.63;;;24.71;34.42
31595;BME280;18200;48.726;8.892;2023-06-04T04:21:51;96809.88;;;24.35;34.57
31595;BME280;18200;48.726;8.892;2023-06-04T04:25:53;96820.09;;;24.35;35.30
31595;BME280;18200;48.726;8.892;2023-06-04T04:29:57;96814.00;;;24.52;35.39
31595;BME280;18200;48.726;8.892;2023-06-04T04:34:01;96819.31;;;24.34;35.07
31595;BME280;18200;48.726;8.892;2023-06-04T04:38:08;96825.13;;;25.35;35.10
31595;BME280;18200;48.726;8.892;2023-06-04T04:42:16;96816.06;;;25.87;33.37
31595;BME280;18200;48.726;8.892;2023-06-04T04:46:17;96826.75;;;26.34;33.18
31595;BME280;18200;48.726;8.892;2023-06-04T04:50:17;96826.28;;;26.27;32.41
31595;BME280;18200;48.726;8.892;2023-06-04T04:54:18;96824.44;;;26.24;32.26
31595;BME280;18200;48.726;8.892;2023-06-04T04:58:18;96828.00;;;25.93;32.35
31595;BME280;18200;48.726;8.892;2023-06-04T05:02:19;96827.97;;;25.84;32.83
31595;BME280;18200;48.726;8.892;2023-06-04T05:06:20;96831.00;;;25.77;33.52
31595;BME280;18200;48.726;8.892;2023-06-04T05:10:21;96841.06;;;26.11;32.76
31595;BME280;18200;48.726;8.892;2023-06-04T05:14:22;96834.56;;;26.36;32.78
31595;BME280;18200;48.726;8.892;2023-06-04T05:18:23;96842.50;;;26.34;32.38
31595;BME280;18200;48.726;8.892;2023-06-04T05:22:29;96851.59;;;26.70;31.72
31595;BME280;18200;48.726;8.892;2023-06-04T05:26:30;96847.75;;;26.77;31.51
31595;BME280;18200;48.726;8.892;2023-06-04T05:30:34;96851.13;;;26.72;31.92
31595;BME280;18200;48.726;8.892;2023-06-04T05:34:35;96861.22;;;26.57;32.52
31595;BME280;18200;48.726;8.892;2023-06-04T05:38:37;96851.00;;;26.75;31.89
31595;BME280;18200;48.726;8.892;2023-06-04T05:42:41;96860.72;;;26.31;32.13
31595;BME280;18200;48.726;8.892;2023-06-04T05:46:42;96871.28;;;26.42;31.79
31595;BME280;18200;48.726;8.892;2023-06-04T05:50:44;96865.75;;;26.24;32.08
31595;BME280;18200;48.726;8.892;2023-06-04T05:54:44;96860.59;;;26.71;30.67
31595;BME280;18200;48.726;8.892;2023-06-04T05:58:51;96867.88;;;26.10;31.57
31595;BME280;18200;48.726;8.892;2023-06-04T06:02:58;96868.22;;;25.60;31.47
31595;BME280;18200;48.726;8.892;2023-06-04T06:07:10;96868.75;;;26.92;30.18
31595;BME280;18200;48.726;8.892;2023-06-04T06:11:10;96867.97;;;27.46;29.84
31595;BME280;18200;48.726;8.892;2023-06-04T06:15:11;96871.50;;;27.47;30.60
31595;BME280;18200;48.726;8.892;2023-06-04T06:19:13;96868.94;;;26.98;30.47
31595;BME280;18200;48.726;8.892;2023-06-04T06:23:13;96864.34;;;28.15;29.14
31595;BME280;18200;48.726;8.892;2023-06-04T06:27:17;96876.84;;;28.34;28.56
31595;BME280;18200;48.726;8.892;2023-06-04T06:31:18;96887.63;;;28.56;27.96
31595;BME280;18200;48.726;8.892;2023-06-04T06:35:19;96885.06;;;28.90;27.14
31595;BME280;18200;48.726;8.892;2023-06-04T06:39:19;96887.19;;;28.48;27.52
31595;BME280;18200;48.726;8.892;2023-06-04T06:43:19;96891.88;;;29.28;25.91
31595;BME280;18200;48.726;8.892;2023-06-04T06:47:20;96884.78;;;30.14;25.46
31595;BME280;18200;48.726;8.892;2023-06-04T06:51:20;96882.50;;;29.40;26.36
31595;BME280;18200;48.726;8.892;2023-06-04T06:55:21;96885.34;;;30.53;24.48
31595;BME280;18200;48.726;8.892;2023-06-04T06:59:21;96886.09;;;30.33;25.57
31595;BME280;18200;48.726;8.892;2023-06-04T07:03:22;96876.63;;;29.76;25.95
31595;BME280;18200;48.726;8.892;2023-06-04T07:07:22;96887.22;;;30.27;25.95
31595;BME280;18200;48.726;8.892;2023-06-04T07:11:23;96883.97;;;29.11;26.56
31595;BME280;18200;48.726;8.892;2023-06-04T07:15:23;96886.97;;;31.00;24.71
31595;BME280;18200;48.726;8.892;2023-06-04T07:19:24;96888.63;;;30.51;25.80
31595;BME280;18200;48.726;8.892;2023-06-04T07:23:24;96886.41;;;29.19;27.92
31595;BME280;18200;48.726;8.892;2023-06-04T07:27:25;96887.47;;;29.50;27.47
31595;BME280;18200;48.726;8.892;2023-06-04T07:31:26;96881.94;;;28.97;28.27
31595;BME280;18200;48.726;8.892;2023-06-04T07:35:26;96889.75;;;29.52;27.48
31595;BME280;18200;48.726;8.892;2023-06-04T07:39:27;96886.00;;;29.11;27.88
31595;BME280;18200;48.726;8.892;2023-06-04T07:43:27;96881.16;;;30.08;26.80
31595;BME280;18200;48.726;8.892;2023-06-04T07:47:28;96876.16;;;31.79;24.96
31595;BME280;18200;48.726;8.892;2023-06-04T07:51:28;96879.66;;;32.42;24.35
31595;BME280;18200;48.726;8.892;2023-06-04T07:55:28;96877.69;;;32.48;24.14
31595;BME280;18200;48.726;8.892;2023-06-04T07:59:29;96873.66;;;31.29;25.04
31595;BME280;18200;48.726;8.892;2023-06-04T08:03:29;96868.94;;;32.24;24.33
31595;BME280;18200;48.726;8.892;2023-06-04T08:07:30;96867.84;;;33.00;23.14
31595;BME280;18200;48.726;8.892;2023-06-04T08:11:30;96871.09;;;32.03;24.70
31595;BME280;18200;48.726;8.892;2023-06-04T08:15:31;96866.56;;;32.48;24.16
31595;BME280;18200;48.726;8.892;2023-06-04T08:19:31;96866.56;;;32.48;24.52
31595;BME280;18200;48.726;8.892;2023-06-04T08:23:32;96862.50;;;31.75;24.63
31595;BME280;18200;48.726;8.892;2023-06-04T08:27:32;96865.44;;;32.71;23.63
31595;BME280;18200;48.726;8.892;2023-06-04T08:31:33;96860.31;;;33.28;22.46
31595;BME280;18200;48.726;8.892;2023-06-04T08:35:33;96867.38;;;33.29;22.41
31595;BME280;18200;48.726;8.892;2023-06-04T08:39:33;96871.63;;;31.81;23.91
31595;BME280;18200;48.726;8.892;2023-06-04T08:43:34;96862.56;;;31.86;23.69
31595;BME280;18200;48.726;8.892;2023-06-04T08:47:37;96862.75;;;32.08;23.31
31595;BME280;18200;48.726;8.892;2023-06-04T08:51:38;96868.72;;;33.61;21.88
31595;BME280;18200;48.726;8.892;2023-06-04T08:55:40;96870.56;;;34.94;20.29
31595;BME280;18200;48.726;8.892;2023-06-04T08:59:41;96883.66;;;34.47;21.17
31595;BME280;18200;48.726;8.892;2023-06-04T09:03:42;96885.03;;;34.92;21.14
31595;BME280;18200;48.726;8.892;2023-06-04T09:07:42;96884.19;;;32.87;21.98
31595;BME280;18200;48.726;8.892;2023-06-04T09:11:54;96888.56;;;35.04;20.10
31595;BME280;18200;48.726;8.892;2023-06-04T09:16:02;96888.41;;;34.74;20.09
31595;BME280;18200;48.726;8.892;2023-06-04T09:20:03;96897.31;;;34.67;20.52
31595;BME280;18200;48.726;8.892;2023-06-04T09:24:03;96899.69;;;34.02;21.45
31595;BME280;18200;48.726;8.892;2023-06-04T09:28:07;96899.41;;;34.28;20.67
31595;BME280;18200;48.726;8.892;2023-06-04T09:32:07;96901.44;;;34.50;20.34
31595;BME280;18200;48.726;8.892;2023-06-04T09:36:07;96894.81;;;33.58;20.91
31595;BME280;18200;48.726;8.892;2023-06-04T09:40:09;96899.91;;;33.99;21.94
31595;BME280;18200;48.726;8.892;2023-06-04T09:44:09;96898.13;;;34.46;20.38
31595;BME280;18200;48.726;8.892;2023-06-04T09:48:19;96901.78;;;35.85;18.65
31595;BME280;18200;48.726;8.892;2023-06-04T09:52:19;96903.94;;;34.53;20.62
31595;BME280;18200;48.726;8.892;2023-06-04T09:56:22;96898.88;;;33.91;20.39
31595;BME280;18200;48.726;8.892;2023-06-04T10:00:23;96900.25;;;35.54;19.14
31595;BME280;18200;48.726;8.892;2023-06-04T10:04:28;96904.00;;;34.09;20.70
31595;BME280;18200;48.726;8.892;2023-06-04T10:08:29;96889.47;;;35.29;18.76
31595;BME280;18200;48.726;8.892;2023-06-04T10:12:35;96901.38;;;34.66;20.44
31595;BME280;18200;48.726;8.892;2023-06-04T10:16:37;96899.91;;;35.69;18.88
31595;BME280;18200;48.726;8.892;2023-06-04T10:20:40;96889.84;;;36.68;18.31
31595;BME280;18200;48.726;8.892;2023-06-04T10:24:41;96892.53;;;37.22;17.82
31595;BME280;18200;48.726;8.892;2023-06-04T10:28:42;96881.47;;;36.14;18.95
31595;BME280;18200;48.726;8.892;2023-06-04T10:32:43;96880.69;;;37.10;17.94
31595;BME280;18200;48.726;8.892;2023-06-04T10:36:44;96880.78;;;37.05;17.25
31595;BME280;18200;48.726;8.892;2023-06-04T10:40:46;96883.13;;;36.28;18.02
31595;BME280;18200;48.726;8.892;2023-06-04T10:44:51;96888.84;;;38.15;16.77
31595;BME280;18200;48.726;8.892;2023-06-04T10:48:52;96881.03;;;38.52;16.91
31595;BME280;18200;48.726;8.892;2023-06-04T10:52:54;96889.00;;;36.54;17.77
31595;BME280;18200;48.726;8.892;2023-06-04T10:56:55;96895.94;;;37.15;18.61
31595;BME280;18200;48.726;8.892;2023-06-04T11:00:55;96882.69;;;37.34;18.24
31595;BME280;18200;48.726;8.892;2023-06-04T11:05:00;96890.09;;;35.51;19.81
31595;BME280;18200;48.726;8.892;2023-06-04T11:09:06;96891.09;;;35.89;19.34
31595;BME280;18200;48.726;8.892;2023-06-04T11:13:07;96880.09;;;36.26;18.16
31595;BME280;18200;48.726;8.892;2023-06-04T11:17:12;96886.06;;;35.82;19.48
31595;BME280;18200;48.726;8.892;2023-06-04T11:21:12;96876.22;;;37.02;17.88
31595;BME280;18200;48.726;8.892;2023-06-04T11:25:14;96877.81;;;35.19;19.49
31595;BME280;18200;48.726;8.892;2023-06-04T11:29:15;96873.06;;;36.44;18.48
31595;BME280;18200;48.726;8.892;2023-06-04T11:33:16;96874.84;;;37.27;17.93
31595;BME280;18200;48.726;8.892;2023-06-04T11:37:16;96868.09;;;34.79;20.41
31595;BME280;18200;48.726;8.892;2023-06-04T11:41:16;96876.16;;;35.81;18.77
31595;BME280;18200;48.726;8.892;2023-06-04T11:45:18;96868.91;;;35.67;18.86
31595;BME280;18200;48.726;8.892;2023-06-04T11:49:20;96879.41;;;35.85;19.81
31595;BME280;18200;48.726;8.892;2023-06-04T11:53:20;96868.28;;;37.93;16.93
31595;BME280;18200;48.726;8.892;2023-06-04T11:57:21;96872.50;;;36.70;18.14
31595;BME280;18200;48.726;8.892;2023-06-04T12:01:22;96865.63;;;37.32;17.25
31595;BME280;18200;48.726;8.892;2023-06-04T12:05:28;96860.59;;;36.88;17.87
31595;BME280;18200;48.726;8.892;2023-06-04T12:09:31;96875.44;;;35.75;19.28
31595;BME280;18200;48.726;8.892;2023-06-04T12:13:37;96864.94;;;38.92;15.79
31595;BME280;18200;48.726;8.892;2023-06-04T12:17:37;96852.88;;;38.13;16.33
31595;BME280;18200;48.726;8.892;2023-06-04T12:21:41;96857.78;;;36.45;17.75
31595;BME280;18200;48.726;8.892;2023-06-04T12:25:42;96844.75;;;36.72;17.74
31595;BME280;18200;48.726;8.892;2023-06-04T12:30:00;96851.84;;;36.97;17.01
31595;BME280;18200;48.726;8.892;2023-06-04T12:34:01;96856.03;;;36.85;17.24
31595;BME280;18200;48.726;8.892;2023-06-04T12:38:03;96851.56;;;34.81;18.46
31595;BME280;18200;48.726;8.892;2023-06-04T12:42:05;96866.31;;;34.76;18.57
31595;BME280;18200;48.726;8.892;2023-06-04T12:46:06;96859.53;;;34.55;19.41
31595;BME280;18200;48.726;8.892;2023-06-04T12:50:07;96858.28;;;34.45;18.95
31595;BME280;18200;48.726;8.892;2023-06-04T12:54:09;96850.41;;;35.88;18.08
31595;BME280;18200;48.726;8.892;2023-06-04T12:58:10;96860.25;;;39.54;15.10
31595;BME280;18200;48.726;8.892;2023-06-04T13:02:10;96852.41;;;37.64;16.46
31595;BME280;18200;48.726;8.892;2023-06-04T13:06:11;96847.66;;;38.62;15.59
31595;BME280;18200;48.726;8.892;2023-06-04T13:10:11;96860.84;;;38.93;15.29
31595;BME280;18200;48.726;8.892;2023-06-04T13:14:11;96845.53;;;39.62;14.20
31595;BME280;18200;48.726;8.892;2023-06-04T13:18:12;96857.38;;;38.35;15.79
31595;BME280;18200;48.726;8.892;2023-06-04T13:22:12;96855.38;;;38.03;15.44
31595;BME280;18200;48.726;8.892;2023-06-04T13:26:13;96852.94;;;38.39;14.87
31595;BME280;18200;48.726;8.892;2023-06-04T13:30:14;96851.38;;;37.30;15.66
31595;BME280;18200;48.726;8.892;2023-06-04T13:34:14;96855.28;;;37.77;16.16
31595;BME280;18200;48.726;8.892;2023-06-04T13:38:15;96844.47;;;36.51;16.08
31595;BME280;18200;48.726;8.892;2023-06-04T13:42:15;96852.69;;;35.60;17.94
31595;BME280;18200;48.726;8.892;2023-06-04T13:46:15;96847.91;;;35.08;17.76
31595;BME280;18200;48.726;8.892;2023-06-04T13:50:16;96842.06;;;36.12;17.18
31595;BME280;18200;48.726;8.892;2023-06-04T13:54:16;96843.53;;;38.37;15.02
31595;BME280;18200;48.726;8.892;2023-06-04T13:58:17;96840.38;;;38.14;15.37
31595;BME280;18200;48.726;8.892;2023-06-04T14:02:17;96837.28;;;36.31;16.46
31595;BME280;18200;48.726;8.892;2023-06-04T14:06:17;96841.63;;;37.68;16.47
31595;BME280;18200;48.726;8.892;2023-06-04T14:10:18;96835.59;;;37.64;15.83
31595;BME280;18200;48.726;8.892;2023-06-04T14:14:19;96846.94;;;37.03;15.82
31595;BME280;18200;48.726;8.892;2023-06-04T14:18:19;96844.56;;;37.07;16.52
31595;BME280;18200;48.726;8.892;2023-06-04T14:22:20;96838.50;;;39.08;15.08
31595;BME280;18200;48.726;8.892;2023-06-04T14:26:20;96838.81;;;39.31;14.61
31595;BME280;18200;48.726;8.892;2023-06-04T14:30:22;96844.88;;;36.36;16.95
31595;BME280;18200;48.726;8.892;2023-06-04T14:34:22;96844.28;;;37.79;15.48
31595;BME280;18200;48.726;8.892;2023-06-04T14:38:23;96838.44;;;38.22;15.06
31595;BME280;18200;48.726;8.892;2023-06-04T14:42:23;96838.38;;;37.64;15.30
31595;BME280;18200;48.726;8.892;2023-06-04T14:46:23;96828.16;;;39.16;14.73
31595;BME280;18200;48.726;8.892;2023-06-04T14:50:24;96833.81;;;38.38;14.96
31595;BME280;18200;48.726;8.892;2023-06-04T14:54:25;96825.31;;;37.54;15.09
31595;BME280;18200;48.726;8.892;2023-06-04T14:58:25;96827.00;;;39.87;13.58
31595;BME280;18200;48.726;8.892;2023-06-04T15:02:27;96816.44;;;38.52;15.23
31595;BME280;18200;48.726;8.892;2023-06-04T15:06:29;96812.38;;;37.64;14.86
31595;BME280;18200;48.726;8.892;2023-06-04T15:10:30;96814.59;;;38.68;14.65
31595;BME280;18200;48.726;8.892;2023-06-04T15:14:30;96817.78;;;38.98;14.49
31595;BME280;18200;48.726;8.892;2023-06-04T15:18:31;96814.78;;;40.61;13.18
31595;BME280;18200;48.726;8.892;2023-06-04T15:22:31;96822.53;;;39.16;13.64
31595;BME280;18200;48.726;8.892;2023-06-04T15:26:31;96813.28;;;38.56;13.80
31595;BME280;18200;48.726;8.892;2023-06-04T15:30:32;96817.13;;;38.00;14.61
31595;BME280;18200;48.726;8.892;2023-06-04T15:34:32;96812.22;;;36.44;14.88
31595;BME280;18200;48.726;8.892;2023-06-04T15:38:32;96810.31;;;37.51;15.12
31595;BME280;18200;48.726;8.892;2023-06-04T15:42:33;96806.97;;;39.02;13.85
31595;BME280;18200;48.726;8.892;2023-06-04T15:46:34;96805.78;;;37.48;14.90
31595;BME280;18200;48.726;8.892;2023-06-04T15:50:34;96798.22;;;37.06;14.50
31595;BME280;18200;48.726;8.892;2023-06-04T15:54:34;96797.50;;;38.00;14.40
31595;BME280;18200;48.726;8.892;2023-06-04T15:58:35;96792.72;;;36.57;14.77
31595;BME280;18200;48.726;8.892;2023-06-04T16:02:35;96795.72;;;39.02;13.87
31595;BME280;18200;48.726;8.892;2023-06-04T16:06:36;96791.41;;;41.25;11.82
31595;BME280;18200;48.726;8.892;2023-06-04T16:10:37;96790.44;;;39.12;13.31
31595;BME280;18200;48.726;8.892;2023-06-04T16:14:37;96791.44;;;38.88;13.57
31595;BME280;18200;48.726;8.892;2023-06-04T16:18:38;96788.56;;;38.41;13.80
31595;BME280;18200;48.726;8.892;2023-06-04T16:22:39;96781.88;;;40.28;12.90
31595;BME280;18200;48.726;8.892;2023-06-04T16:26:40;96782.75;;;38.52;14.03
31595;BME280;18200;48.726;8.892;2023-06-04T16:30:40;96786.34;;;39.33;13.99
31595;BME280;18200;48.726;8.892;2023-06-04T16:34:40;96781.84;;;38.44;14.49
31595;BME280;18200;48.726;8.892;2023-06-04T16:38:41;96781.56;;;39.41;13.24
31595;BME280;18200;48.726;8.892;2023-06-04T16:42:41;96778.81;;;37.26;14.49
31595;BME280;18200;48.726;8.892;2023-06-04T16:46:41;96769.41;;;36.87;15.16
31595;BME280;18200;48.726;8.892;2023-06-04T16:50:42;96770.91;;;37.25;14.94
31595;BME280;18200;48.726;8.892;2023-06-04T16:54:43;96766.75;;;36.14;15.85
31595;BME280;18200;48.726;8.892;2023-06-04T16:58:43;96777.00;;;36.06;15.75
31595;BME280;18200;48.726;8.892;2023-06-04T17:02:45;96772.28;;;37.69;14.79
31595;BME280;18200;48.726;8.892;2023-06-04T17:06:45;96776.00;;;35.50;16.08
31595;BME280;18200;48.726;8.892;2023-06-04T17:10:45;96770.72;;;36.24;15.12
31595;BME280;18200;48.726;8.892;2023-06-04T17:14:47;96776.13;;;37.84;14.85
31595;BME280;18200;48.726;8.892;2023-06-04T17:18:47;96772.44;;;37.26;14.74
31595;BME280;18200;48.726;8.892;2023-06-04T17:22:48;96772.06;;;37.67;14.44
31595;BME280;18200;48.726;8.892;2023-06-04T17:26:48;96787.09;;;35.26;16.56
31595;BME280;18200;48.726;8.892;2023-06-04T17:30:48;96781.13;;;36.91;15.12
31595;BME280;18200;48.726;8.892;2023-06-04T17:34:49;96778.31;;;37.73;14.50
31595;BME280;18200;48.726;8.892;2023-06-04T17:38:50;96781.66;;;37.71;13.66
31595;BME280;18200;48.726;8.892;2023-06-04T17:42:51;96780.69;;;38.27;13.84
31595;BME280;18200;48.726;8.892;2023-06-04T17:46:51;96779.81;;;36.30;15.11
31595;BME280;18200;48.726;8.892;2023-06-04T17:50:52;96773.66;;;36.75;15.27
31595;BME280;18200;48.726;8.892;2023-06-04T17:54:52;96782.47;;;37.85;14.53
31595;BME280;18200;48.726;8.892;2023-06-04T17:58:53;96777.00;;;36.73;15.21
31595;BME280;18200;48.726;8.892;2023-06-04T18:02:56;96788.50;;;34.39;17.08
31595;BME280;18200;48.726;8.892;2023-06-04T18:06:56;96790.66;;;34.80;16.45
31595;BME280;18200;48.726;8.892;2023-06-04T18:10:56;96781.50;;;35.61;16.14
31595;BME280;18200;48.726;8.892;2023-06-04T18:14:58;96790.78;;;35.09;16.81
31595;BME280;18200;48.726;8.892;2023-06-04T18:18:59;96792.94;;;33.30;18.11
31595;BME280;18200;48.726;8.892;2023-06-04T18:22:59;96799.00;;;34.17;17.51
31595;BME280;18200;48.726;8.892;2023-06-04T18:26:59;96794.22;;;35.27;16.52
31595;BME280;18200;48.726;8.892;2023-06-04T18:31:00;96803.06;;;34.16;17.44
31595;BME280;18200;48.726;8.892;2023-06-04T18:35:01;96805.31;;;34.91;16.76
31595;BME280;18200;48.726;8.892;2023-06-04T18:39:02;96810.50;;;34.65;17.81
31595;BME280;18200;48.726;8.892;2023-06-04T18:43:03;96804.72;;;34.58;17.48
31595;BME280;18200;48.726;8.892;2023-06-04T18:47:04;96797.69;;;34.34;17.21
31595;BME280;18200;48.726;8.892;2023-06-04T18:51:05;96804.09;;;33.91;18.37
31595;BME280;18200;48.726;8.892;2023-06-04T18:55:07;96797.59;;;34.57;18.34
31595;BME280;18200;48.726;8.892;2023-06-04T18:59:07;96801.28;;;34.87;18.14
31595;BME280;18200;48.726;8.892;2023-06-04T19:03:08;96804.69;;;34.69;17.52
31595;BME280;18200;48.726;8.892;2023-06-04T19:07:08;96800.19;;;34.44;17.89
31595;BME280;18200;48.726;8.892;2023-06-04T19:11:08;96797.78;;;33.51;18.86
31595;BME280;18200;48.726;8.892;2023-06-04T19:15:09;96810.69;;;33.88;18.76
31595;BME280;18200;48.726;8.892;2023-06-04T19:19:09;96803.78;;;33.06;19.32
31595;BME280;18200;48.726;8.892;2023-06-04T19:23:10;96811.19;;;33.36;18.45
31595;BME280;18200;48.726;8.892;2023-06-04T19:27:10;96810.44;;;33.63;18.68
31595;BME280;18200;48.726;8.892;2023-06-04T19:31:11;96816.53;;;33.79;18.60
31595;BME280;18200;48.726;8.892;2023-06-04T19:35:11;96825.03;;;34.42;18.17
31595;BME280;18200;48.726;8.892;2023-06-04T19:39:11;96837.44;;;34.57;18.18
31595;BME280;18200;48.726;8.892;2023-06-04T19:43:12;96843.56;;;34.50;18.59
31595;BME280;18200;48.726;8.892;2023-06-04T19:47:12;96851.25;;;33.78;18.93
31595;BME280;18200;48.726;8.892;2023-06-04T19:51:13;96849.72;;;33.99;18.75
31595;BME280;18200;48.726;8.892;2023-06-04T19:55:16;96857.81;;;33.41;19.03
31595;BME280;18200;48.726;8.892;2023-06-04T19:59:18;96852.91;;;33.14;19.49
31595;BME280;18200;48.726;8.892;2023-06-04T20:03:19;96855.78;;;33.47;19.82
31595;BME280;18200;48.726;8.892;2023-06-04T20:07:19;96861.06;;;33.18;19.86
31595;BME280;18200;48.726;8.892;2023-06-04T20:11:20;96870.28;;;32.39;21.04
31595;BME280;18200;48.726;8.892;2023-06-04T20:15:22;96862.53;;;32.49;21.07
31595;BME280;18200;48.726;8.892;2023-06-04T20:19:22;96865.03;;;32.47;21.26
31595;BME280;18200;48.726;8.892;2023-06-04T20:23:22;96868.94;;;32.24;21.61
31595;BME280;18200;48.726;8.892;2023-06-04T20:27:23;96868.78;;;32.01;21.91
31595;BME280;18200;48.726;8.892;2023-06-04T20:31:25;96869.03;;;31.72;22.13
31595;BME280;18200;48.726;8.892;2023-06-04T20:35:26;96872.25;;;31.65;22.30
31595;BME280;18200;48.726;8.892;2023-06-04T20:39:26;96872.97;;;31.60;22.16
31595;BME280;18200;48.726;8.892;2023-06-04T20:43:51;96874.06;;;31.68;22.06
31595;BME280;18200;48.726;8.892;2023-06-04T20:47:52;96873.72;;;31.61;21.55
31595;BME280;18200;48.726;8.892;2023-06-04T20:51:52;96875.28;;;31.67;21.80
31595;BME280;18200;48.726;8.892;2023-06-04T20:55:52;96876.75;;;31.37;22.11
31595;BME280;18200;48.726;8.892;2023-06-04T20:59:53;96874.28;;;31.39;22.17
31595;BME280;18200;48.726;8.892;2023-06-04T21:03:53;96884.19;;;31.20;22.79
31595;BME280;18200;48.726;8.892;2023-06-04T21:07:53;96881.31;;;31.14;23.24
31595;BME280;18200;48.726;8.892;2023-06-04T21:11:56;96876.81;;;30.97;23.22
31595;BME280;18200;48.726;8.892;2023-06-04T21:15:56;96887.22;;;30.82;24.03
31595;BME280;18200;48.726;8.892;2023-06-04T21:19:57;96880.31;;;30.37;23.94
31595;BME280;18200;48.726;8.892;2023-06-04T21:23:57;96880.13;;;30.40;23.85